sensor_id;sensor_type;location;lat;lon;timestamp;P1;durP1;ratioP1;P2;durP2;ratioP2
32152;SDS011;18656;50.580;11.392;2022-10-18T00:01:28;8.32;;;6.03;;
32152;SDS011;18656;50.580;11.392;2022-10-18T00:03:56;5.72;;;4.68;;
32152;SDS011;18656;50.580;11.392;2022-10-18T00:06:23;12.02;;;6.65;;
32152;SDS011;18656;50.580;11.392;2022-10-18T00:08:50;6.40;;;5.80;;
32152;SDS011;18656;50.580;11.392;2022-10-18T00:11:18;6.65;;;5.32;;
32152;SDS011;18656;50.580;11.392;2022-10-18T00:13:45;13.25;;;6.30;;
32152;SDS011;18656;50.580;11.392;2022-10-18T00:16:13;7.55;;;5.47;;
32152;SDS011;18656;50.580;11.392;2022-10-18T00:18:41;15.95;;;7.90;;
32152;SDS011;18656;50.580;11.392;2022-10-18T00:21:10;9.00;;;5.68;;
32152;SDS011;18656;50.580;11.392;2022-10-18T00:23:37;6.75;;;5.60;;
32152;SDS011;18656;50.580;11.392;2022-10-18T00:26:06;11.00;;;6.43;;
32152;SDS011;18656;50.580;11.392;2022-10-18T00:28:33;11.90;;;6.45;;
32152;SDS011;18656;50.580;11.392;2022-10-18T00:31:09;9.55;;;6.20;;
32152;SDS011;18656;50.580;11.392;2022-10-18T00:33:36;12.65;;;6.57;;
32152;SDS011;18656;50.580;11.392;2022-10-18T00:36:03;11.07;;;6.63;;
32152;SDS011;18656;50.580;11.392;2022-10-18T00:38:31;9.35;;;5.60;;
32152;SDS011;18656;50.580;11.392;2022-10-18T00:40:58;7.97;;;5.32;;
32152;SDS011;18656;50.580;11.392;2022-10-18T00:43:25;5.90;;;5.30;;
32152;SDS011;18656;50.580;11.392;2022-10-18T00:45:52;7.78;;;5.22;;
32152;SDS011;18656;50.580;11.392;2022-10-18T00:48:19;13.95;;;6.20;;
32152;SDS011;18656;50.580;11.392;2022-10-18T00:50:47;7.65;;;5.43;;
32152;SDS011;18656;50.580;11.392;2022-10-18T00:53:17;7.20;;;5.03;;
32152;SDS011;18656;50.580;11.392;2022-10-18T00:55:45;13.45;;;5.32;;
32152;SDS011;18656;50.580;11.392;2022-10-18T00:58:13;6.22;;;4.97;;
32152;SDS011;18656;50.580;11.392;2022-10-18T01:00:40;7.72;;;5.00;;
32152;SDS011;18656;50.580;11.392;2022-10-18T01:03:08;16.38;;;5.50;;
32152;SDS011;18656;50.580;11.392;2022-10-18T01:05:40;8.50;;;4.88;;
32152;SDS011;18656;50.580;11.392;2022-10-18T01:08:13;9.50;;;5.30;;
32152;SDS011;18656;50.580;11.392;2022-10-18T01:13:34;11.90;;;5.65;;
32152;SDS011;18656;50.580;11.392;2022-10-18T01:16:15;10.40;;;5.95;;
32152;SDS011;18656;50.580;11.392;2022-10-18T01:18:45;7.30;;;5.38;;
32152;SDS011;18656;50.580;11.392;2022-10-18T01:31:46;9.77;;;5.95;;
32152;SDS011;18656;50.580;11.392;2022-10-18T01:34:15;15.30;;;5.63;;
32152;SDS011;18656;50.580;11.392;2022-10-18T01:36:47;8.60;;;5.70;;
32152;SDS011;18656;50.580;11.392;2022-10-18T01:39:23;7.47;;;5.15;;
32152;SDS011;18656;50.580;11.392;2022-10-18T01:41:52;9.95;;;5.78;;
32152;SDS011;18656;50.580;11.392;2022-10-18T01:44:21;8.32;;;5.55;;
32152;SDS011;18656;50.580;11.392;2022-10-18T01:46:50;36.90;;;11.73;;
32152;SDS011;18656;50.580;11.392;2022-10-18T01:49:18;17.10;;;6.05;;
32152;SDS011;18656;50.580;11.392;2022-10-18T01:51:45;11.43;;;5.53;;
32152;SDS011;18656;50.580;11.392;2022-10-18T01:54:14;13.18;;;7.78;;
32152;SDS011;18656;50.580;11.392;2022-10-18T02:04:19;11.93;;;6.07;;
32152;SDS011;18656;50.580;11.392;2022-10-18T02:06:50;8.98;;;5.70;;
32152;SDS011;18656;50.580;11.392;2022-10-18T02:09:19;10.32;;;5.68;;
32152;SDS011;18656;50.580;11.392;2022-10-18T02:11:48;8.70;;;6.32;;
32152;SDS011;18656;50.580;11.392;2022-10-18T02:14:17;23.80;;;13.50;;
32152;SDS011;18656;50.580;11.392;2022-10-18T02:16:47;23.95;;;14.32;;
32152;SDS011;18656;50.580;11.392;2022-10-18T02:21:46;17.67;;;11.32;;
32152;SDS011;18656;50.580;11.392;2022-10-18T02:24:14;19.75;;;8.02;;
32152;SDS011;18656;50.580;11.392;2022-10-18T02:26:41;6.88;;;6.07;;
32152;SDS011;18656;50.580;11.392;2022-10-18T02:29:09;9.75;;;8.50;;
32152;SDS011;18656;50.580;11.392;2022-10-18T02:31:44;10.98;;;8.98;;
32152;SDS011;18656;50.580;11.392;2022-10-18T02:34:22;10.57;;;8.48;;
32152;SDS011;18656;50.580;11.392;2022-10-18T02:36:50;10.07;;;6.47;;
32152;SDS011;18656;50.580;11.392;2022-10-18T02:39:22;6.97;;;5.43;;
32152;SDS011;18656;50.580;11.392;2022-10-18T02:41:52;11.23;;;5.27;;
32152;SDS011;18656;50.580;11.392;2022-10-18T02:44:19;7.10;;;5.03;;
32152;SDS011;18656;50.580;11.392;2022-10-18T02:46:46;6.63;;;5.13;;
32152;SDS011;18656;50.580;11.392;2022-10-18T02:49:14;12.63;;;7.75;;
32152;SDS011;18656;50.580;11.392;2022-10-18T02:51:41;6.75;;;6.05;;
32152;SDS011;18656;50.580;11.392;2022-10-18T02:54:08;8.00;;;6.38;;
32152;SDS011;18656;50.580;11.392;2022-10-18T02:56:36;11.93;;;6.85;;
32152;SDS011;18656;50.580;11.392;2022-10-18T02:59:03;8.60;;;7.47;;
32152;SDS011;18656;50.580;11.392;2022-10-18T03:01:33;6.55;;;5.40;;
32152;SDS011;18656;50.580;11.392;2022-10-18T03:04:01;8.32;;;6.07;;
32152;SDS011;18656;50.580;11.392;2022-10-18T03:06:29;11.30;;;6.70;;
32152;SDS011;18656;50.580;11.392;2022-10-18T03:08:56;10.18;;;7.00;;
32152;SDS011;18656;50.580;11.392;2022-10-18T03:11:23;7.60;;;5.90;;
32152;SDS011;18656;50.580;11.392;2022-10-18T03:13:51;7.50;;;6.30;;
32152;SDS011;18656;50.580;11.392;2022-10-18T03:16:18;12.15;;;8.75;;
32152;SDS011;18656;50.580;11.392;2022-10-18T03:18:45;7.65;;;6.78;;
32152;SDS011;18656;50.580;11.392;2022-10-18T03:21:12;10.38;;;7.97;;
32152;SDS011;18656;50.580;11.392;2022-10-18T03:23:39;9.35;;;6.57;;
32152;SDS011;18656;50.580;11.392;2022-10-18T03:26:07;17.58;;;10.65;;
32152;SDS011;18656;50.580;11.392;2022-10-18T03:28:34;13.30;;;11.30;;
32152;SDS011;18656;50.580;11.392;2022-10-18T03:31:02;19.33;;;9.15;;
32152;SDS011;18656;50.580;11.392;2022-10-18T03:33:30;13.05;;;6.80;;
32152;SDS011;18656;50.580;11.392;2022-10-18T03:35:58;16.15;;;6.45;;
32152;SDS011;18656;50.580;11.392;2022-10-18T03:38:25;9.25;;;6.30;;
32152;SDS011;18656;50.580;11.392;2022-10-18T03:40:52;9.13;;;6.53;;
32152;SDS011;18656;50.580;11.392;2022-10-18T03:43:20;10.50;;;6.40;;
32152;SDS011;18656;50.580;11.392;2022-10-18T03:45:47;10.70;;;7.20;;
32152;SDS011;18656;50.580;11.392;2022-10-18T03:48:15;12.32;;;9.15;;
32152;SDS011;18656;50.580;11.392;2022-10-18T03:50:42;13.02;;;8.80;;
32152;SDS011;18656;50.580;11.392;2022-10-18T03:53:09;13.65;;;8.75;;
32152;SDS011;18656;50.580;11.392;2022-10-18T03:55:37;13.70;;;8.70;;
32152;SDS011;18656;50.580;11.392;2022-10-18T03:58:04;7.72;;;6.78;;
32152;SDS011;18656;50.580;11.392;2022-10-18T04:00:31;10.38;;;7.05;;
32152;SDS011;18656;50.580;11.392;2022-10-18T04:02:59;11.98;;;8.25;;
32152;SDS011;18656;50.580;11.392;2022-10-18T04:05:26;9.80;;;6.85;;
32152;SDS011;18656;50.580;11.392;2022-10-18T04:07:56;11.13;;;7.63;;
32152;SDS011;18656;50.580;11.392;2022-10-18T04:10:23;11.07;;;6.75;;
32152;SDS011;18656;50.580;11.392;2022-10-18T04:12:51;9.57;;;6.80;;
32152;SDS011;18656;50.580;11.392;2022-10-18T04:15:18;13.20;;;6.60;;
32152;SDS011;18656;50.580;11.392;2022-10-18T04:17:45;10.75;;;7.97;;
32152;SDS011;18656;50.580;11.392;2022-10-18T04:20:13;10.52;;;7.72;;
32152;SDS011;18656;50.580;11.392;2022-10-18T04:22:40;15.45;;;7.82;;
32152;SDS011;18656;50.580;11.392;2022-10-18T04:25:07;7.25;;;6.10;;
32152;SDS011;18656;50.580;11.392;2022-10-18T04:27:35;11.40;;;6.75;;
32152;SDS011;18656;50.580;11.392;2022-10-18T04:30:02;11.45;;;7.28;;
32152;SDS011;18656;50.580;11.392;2022-10-18T04:32:30;12.80;;;7.53;;
32152;SDS011;18656;50.580;11.392;2022-10-18T04:34:57;14.77;;;8.35;;
32152;SDS011;18656;50.580;11.392;2022-10-18T04:37:24;23.60;;;9.00;;
32152;SDS011;18656;50.580;11.392;2022-10-18T04:39:51;13.65;;;8.50;;
32152;SDS011;18656;50.580;11.392;2022-10-18T04:42:19;12.43;;;7.57;;
32152;SDS011;18656;50.580;11.392;2022-10-18T04:44:46;20.27;;;8.73;;
32152;SDS011;18656;50.580;11.392;2022-10-18T04:47:14;11.80;;;7.80;;
32152;SDS011;18656;50.580;11.392;2022-10-18T04:49:41;13.13;;;6.80;;
32152;SDS011;18656;50.580;11.392;2022-10-18T04:52:09;11.48;;;6.65;;
32152;SDS011;18656;50.580;11.392;2022-10-18T04:54:36;11.70;;;6.88;;
32152;SDS011;18656;50.580;11.392;2022-10-18T04:57:03;10.90;;;7.80;;
32152;SDS011;18656;50.580;11.392;2022-10-18T04:59:30;10.43;;;6.03;;
32152;SDS011;18656;50.580;11.392;2022-10-18T05:01:58;8.93;;;7.10;;
32152;SDS011;18656;50.580;11.392;2022-10-18T05:04:25;17.80;;;9.48;;
32152;SDS011;18656;50.580;11.392;2022-10-18T05:06:52;11.25;;;7.18;;
32152;SDS011;18656;50.580;11.392;2022-10-18T05:09:20;13.73;;;8.25;;
32152;SDS011;18656;50.580;11.392;2022-10-18T05:11:50;14.23;;;6.93;;
32152;SDS011;18656;50.580;11.392;2022-10-18T05:14:17;12.95;;;7.82;;
32152;SDS011;18656;50.580;11.392;2022-10-18T05:16:44;10.18;;;7.45;;
32152;SDS011;18656;50.580;11.392;2022-10-18T05:19:11;10.07;;;7.45;;
32152;SDS011;18656;50.580;11.392;2022-10-18T05:21:38;12.82;;;7.07;;
32152;SDS011;18656;50.580;11.392;2022-10-18T05:24:06;13.75;;;8.25;;
32152;SDS011;18656;50.580;11.392;2022-10-18T05:26:33;8.55;;;6.72;;
32152;SDS011;18656;50.580;11.392;2022-10-18T05:29:01;13.55;;;8.93;;
32152;SDS011;18656;50.580;11.392;2022-10-18T05:31:28;14.38;;;7.93;;
32152;SDS011;18656;50.580;11.392;2022-10-18T05:33:55;12.30;;;8.02;;
32152;SDS011;18656;50.580;11.392;2022-10-18T05:36:23;8.85;;;6.97;;
32152;SDS011;18656;50.580;11.392;2022-10-18T05:38:51;9.93;;;7.40;;
32152;SDS011;18656;50.580;11.392;2022-10-18T05:41:19;12.57;;;7.75;;
32152;SDS011;18656;50.580;11.392;2022-10-18T05:43:46;16.92;;;8.77;;
32152;SDS011;18656;50.580;11.392;2022-10-18T05:46:13;10.40;;;8.10;;
32152;SDS011;18656;50.580;11.392;2022-10-18T05:48:41;12.13;;;8.18;;
32152;SDS011;18656;50.580;11.392;2022-10-18T05:51:09;15.68;;;7.95;;
32152;SDS011;18656;50.580;11.392;2022-10-18T05:53:37;12.77;;;8.80;;
32152;SDS011;18656;50.580;11.392;2022-10-18T05:56:04;15.73;;;8.40;;
32152;SDS011;18656;50.580;11.392;2022-10-18T05:58:32;10.88;;;8.52;;
32152;SDS011;18656;50.580;11.392;2022-10-18T06:01:03;17.77;;;8.95;;
32152;SDS011;18656;50.580;11.392;2022-10-18T06:03:30;16.70;;;9.00;;
32152;SDS011;18656;50.580;11.392;2022-10-18T06:06:08;13.60;;;7.63;;
32152;SDS011;18656;50.580;11.392;2022-10-18T06:08:36;13.50;;;7.80;;
32152;SDS011;18656;50.580;11.392;2022-10-18T06:11:07;11.20;;;7.10;;
32152;SDS011;18656;50.580;11.392;2022-10-18T06:13:38;16.00;;;9.38;;
32152;SDS011;18656;50.580;11.392;2022-10-18T06:16:05;9.73;;;7.03;;
32152;SDS011;18656;50.580;11.392;2022-10-18T06:18:33;13.27;;;6.93;;
32152;SDS011;18656;50.580;11.392;2022-10-18T06:21:00;13.82;;;8.05;;
32152;SDS011;18656;50.580;11.392;2022-10-18T06:23:27;21.55;;;8.38;;
32152;SDS011;18656;50.580;11.392;2022-10-18T06:25:59;15.27;;;9.15;;
32152;SDS011;18656;50.580;11.392;2022-10-18T06:28:27;15.65;;;8.23;;
32152;SDS011;18656;50.580;11.392;2022-10-18T06:30:55;13.48;;;8.50;;
32152;SDS011;18656;50.580;11.392;2022-10-18T06:33:22;18.17;;;9.07;;
32152;SDS011;18656;50.580;11.392;2022-10-18T06:36:00;15.82;;;8.23;;
32152;SDS011;18656;50.580;11.392;2022-10-18T06:38:28;15.82;;;8.10;;
32152;SDS011;18656;50.580;11.392;2022-10-18T06:40:55;16.20;;;8.13;;
32152;SDS011;18656;50.580;11.392;2022-10-18T06:43:23;16.60;;;9.73;;
32152;SDS011;18656;50.580;11.392;2022-10-18T06:45:50;19.13;;;8.73;;
32152;SDS011;18656;50.580;11.392;2022-10-18T06:48:18;17.50;;;9.60;;
32152;SDS011;18656;50.580;11.392;2022-10-18T06:50:54;19.85;;;8.60;;
32152;SDS011;18656;50.580;11.392;2022-10-18T06:53:23;11.38;;;8.38;;
32152;SDS011;18656;50.580;11.392;2022-10-18T06:55:50;19.38;;;9.63;;
32152;SDS011;18656;50.580;11.392;2022-10-18T06:58:18;15.88;;;9.55;;
32152;SDS011;18656;50.580;11.392;2022-10-18T07:00:45;15.15;;;11.38;;
32152;SDS011;18656;50.580;11.392;2022-10-18T07:03:12;21.55;;;14.18;;
32152;SDS011;18656;50.580;11.392;2022-10-18T07:05:40;20.15;;;11.73;;
32152;SDS011;18656;50.580;11.392;2022-10-18T07:08:07;17.17;;;10.60;;
32152;SDS011;18656;50.580;11.392;2022-10-18T07:10:34;24.60;;;11.68;;
32152;SDS011;18656;50.580;11.392;2022-10-18T07:13:02;19.10;;;10.63;;
32152;SDS011;18656;50.580;11.392;2022-10-18T07:15:58;16.90;;;9.32;;
32152;SDS011;18656;50.580;11.392;2022-10-18T07:18:25;22.40;;;10.35;;
32152;SDS011;18656;50.580;11.392;2022-10-18T07:20:52;22.92;;;10.52;;
32152;SDS011;18656;50.580;11.392;2022-10-18T07:23:20;19.67;;;9.90;;
32152;SDS011;18656;50.580;11.392;2022-10-18T07:25:50;17.77;;;9.65;;
32152;SDS011;18656;50.580;11.392;2022-10-18T07:28:17;28.55;;;12.13;;
32152;SDS011;18656;50.580;11.392;2022-10-18T07:30:44;20.33;;;11.13;;
32152;SDS011;18656;50.580;11.392;2022-10-18T07:33:12;18.20;;;10.65;;
32152;SDS011;18656;50.580;11.392;2022-10-18T07:35:39;18.33;;;9.82;;
32152;SDS011;18656;50.580;11.392;2022-10-18T07:38:06;28.23;;;12.63;;
32152;SDS011;18656;50.580;11.392;2022-10-18T07:40:33;31.92;;;10.60;;
32152;SDS011;18656;50.580;11.392;2022-10-18T07:43:00;21.45;;;10.15;;
32152;SDS011;18656;50.580;11.392;2022-10-18T07:45:30;10.38;;;7.40;;
32152;SDS011;18656;50.580;11.392;2022-10-18T07:47:57;16.50;;;7.78;;
32152;SDS011;18656;50.580;11.392;2022-10-18T07:50:25;15.82;;;7.03;;
32152;SDS011;18656;50.580;11.392;2022-10-18T07:52:52;9.57;;;6.72;;
32152;SDS011;18656;50.580;11.392;2022-10-18T07:55:19;13.05;;;5.65;;
32152;SDS011;18656;50.580;11.392;2022-10-18T07:57:46;7.95;;;4.80;;
32152;SDS011;18656;50.580;11.392;2022-10-18T08:00:14;5.90;;;4.25;;
32152;SDS011;18656;50.580;11.392;2022-10-18T08:02:41;24.67;;;4.72;;
32152;SDS011;18656;50.580;11.392;2022-10-18T08:05:08;10.25;;;4.13;;
32152;SDS011;18656;50.580;11.392;2022-10-18T08:07:35;18.67;;;4.90;;
32152;SDS011;18656;50.580;11.392;2022-10-18T08:10:02;13.40;;;5.53;;
32152;SDS011;18656;50.580;11.392;2022-10-18T08:12:30;11.80;;;6.18;;
32152;SDS011;18656;50.580;11.392;2022-10-18T08:14:57;11.93;;;6.18;;
32152;SDS011;18656;50.580;11.392;2022-10-18T08:17:25;19.08;;;6.57;;
32152;SDS011;18656;50.580;11.392;2022-10-18T08:19:54;15.85;;;8.30;;
32152;SDS011;18656;50.580;11.392;2022-10-18T08:22:37;11.25;;;7.47;;
32152;SDS011;18656;50.580;11.392;2022-10-18T08:25:04;13.23;;;8.35;;
32152;SDS011;18656;50.580;11.392;2022-10-18T08:27:31;9.27;;;6.95;;
32152;SDS011;18656;50.580;11.392;2022-10-18T08:29:59;10.52;;;8.88;;
32152;SDS011;18656;50.580;11.392;2022-10-18T08:32:27;11.13;;;7.38;;
32152;SDS011;18656;50.580;11.392;2022-10-18T08:34:55;8.35;;;7.15;;
32152;SDS011;18656;50.580;11.392;2022-10-18T08:37:22;7.40;;;6.70;;
32152;SDS011;18656;50.580;11.392;2022-10-18T08:39:49;18.15;;;8.95;;
32152;SDS011;18656;50.580;11.392;2022-10-18T08:44:47;9.05;;;7.43;;
32152;SDS011;18656;50.580;11.392;2022-10-18T08:47:16;7.50;;;6.75;;
32152;SDS011;18656;50.580;11.392;2022-10-18T08:49:45;11.43;;;7.15;;
32152;SDS011;18656;50.580;11.392;2022-10-18T08:57:17;17.70;;;7.80;;
32152;SDS011;18656;50.580;11.392;2022-10-18T08:59:45;6.20;;;5.65;;
32152;SDS011;18656;50.580;11.392;2022-10-18T09:02:17;7.85;;;6.47;;
32152;SDS011;18656;50.580;11.392;2022-10-18T09:05:02;9.43;;;6.25;;
32152;SDS011;18656;50.580;11.392;2022-10-18T09:12:54;9.88;;;5.93;;
32152;SDS011;18656;50.580;11.392;2022-10-18T09:20:49;5.30;;;4.90;;
32152;SDS011;18656;50.580;11.392;2022-10-18T09:23:18;5.20;;;4.70;;
32152;SDS011;18656;50.580;11.392;2022-10-18T09:25:52;9.32;;;5.45;;
32152;SDS011;18656;50.580;11.392;2022-10-18T09:36:22;6.43;;;4.40;;
32152;SDS011;18656;50.580;11.392;2022-10-18T09:38:51;6.63;;;3.70;;
32152;SDS011;18656;50.580;11.392;2022-10-18T09:41:24;4.78;;;3.88;;
32152;SDS011;18656;50.580;11.392;2022-10-18T09:43:54;5.15;;;3.58;;
32152;SDS011;18656;50.580;11.392;2022-10-18T09:46:26;3.60;;;3.30;;
32152;SDS011;18656;50.580;11.392;2022-10-18T09:48:58;5.65;;;3.00;;
32152;SDS011;18656;50.580;11.392;2022-10-18T09:51:33;3.83;;;3.40;;
32152;SDS011;18656;50.580;11.392;2022-10-18T09:56:48;3.78;;;3.15;;
32152;SDS011;18656;50.580;11.392;2022-10-18T09:59:35;5.22;;;3.35;;
32152;SDS011;18656;50.580;11.392;2022-10-18T10:02:04;5.10;;;3.40;;
32152;SDS011;18656;50.580;11.392;2022-10-18T10:04:32;5.30;;;3.53;;
32152;SDS011;18656;50.580;11.392;2022-10-18T10:07:00;5.35;;;2.88;;
32152;SDS011;18656;50.580;11.392;2022-10-18T10:09:36;3.30;;;2.63;;
32152;SDS011;18656;50.580;11.392;2022-10-18T10:12:39;3.15;;;2.53;;
32152;SDS011;18656;50.580;11.392;2022-10-18T10:17:35;4.78;;;2.95;;
32152;SDS011;18656;50.580;11.392;2022-10-18T10:22:38;7.28;;;2.63;;
32152;SDS011;18656;50.580;11.392;2022-10-18T10:25:06;4.80;;;2.80;;
32152;SDS011;18656;50.580;11.392;2022-10-18T10:27:43;4.18;;;3.08;;
32152;SDS011;18656;50.580;11.392;2022-10-18T10:30:25;2.85;;;2.65;;
32152;SDS011;18656;50.580;11.392;2022-10-18T10:32:54;3.20;;;2.80;;
32152;SDS011;18656;50.580;11.392;2022-10-18T10:35:29;4.50;;;2.80;;
32152;SDS011;18656;50.580;11.392;2022-10-18T10:38:24;4.88;;;2.10;;
32152;SDS011;18656;50.580;11.392;2022-10-18T10:40:51;2.83;;;2.28;;
32152;SDS011;18656;50.580;11.392;2022-10-18T10:43:26;2.40;;;2.30;;
32152;SDS011;18656;50.580;11.392;2022-10-18T10:46:10;2.97;;;2.78;;
32152;SDS011;18656;50.580;11.392;2022-10-18T10:48:40;2.53;;;2.35;;
32152;SDS011;18656;50.580;11.392;2022-10-18T10:51:08;2.28;;;2.17;;
32152;SDS011;18656;50.580;11.392;2022-10-18T10:56:03;5.07;;;2.03;;
32152;SDS011;18656;50.580;11.392;2022-10-18T10:58:38;2.88;;;2.50;;
32152;SDS011;18656;50.580;11.392;2022-10-18T11:01:16;5.20;;;3.05;;
32152;SDS011;18656;50.580;11.392;2022-10-18T11:03:45;4.43;;;1.98;;
32152;SDS011;18656;50.580;11.392;2022-10-18T11:06:29;4.63;;;2.50;;
32152;SDS011;18656;50.580;11.392;2022-10-18T11:08:58;3.15;;;2.83;;
32152;SDS011;18656;50.580;11.392;2022-10-18T11:11:27;5.80;;;3.10;;
32152;SDS011;18656;50.580;11.392;2022-10-18T11:14:00;3.00;;;2.67;;
32152;SDS011;18656;50.580;11.392;2022-10-18T11:16:57;3.03;;;2.63;;
32152;SDS011;18656;50.580;11.392;2022-10-18T11:22:08;3.08;;;2.88;;
32152;SDS011;18656;50.580;11.392;2022-10-18T11:24:37;19.15;;;12.95;;
32152;SDS011;18656;50.580;11.392;2022-10-18T11:27:17;28.42;;;21.15;;
32152;SDS011;18656;50.580;11.392;2022-10-18T11:29:49;31.92;;;28.52;;
32152;SDS011;18656;50.580;11.392;2022-10-18T11:32:33;156.40;;;80.15;;
32152;SDS011;18656;50.580;11.392;2022-10-18T11:42:35;62.50;;;56.08;;
32152;SDS011;18656;50.580;11.392;2022-10-18T11:55:41;3.55;;;1.77;;
32152;SDS011;18656;50.580;11.392;2022-10-18T12:05:57;1.30;;;1.20;;
32152;SDS011;18656;50.580;11.392;2022-10-18T12:08:32;1.10;;;1.10;;
32152;SDS011;18656;50.580;11.392;2022-10-18T12:11:05;1.33;;;1.13;;
32152;SDS011;18656;50.580;11.392;2022-10-18T12:13:47;0.95;;;0.90;;
32152;SDS011;18656;50.580;11.392;2022-10-18T12:16:16;0.60;;;0.60;;
32152;SDS011;18656;50.580;11.392;2022-10-18T12:19:06;0.80;;;0.80;;
32152;SDS011;18656;50.580;11.392;2022-10-18T12:21:37;0.55;;;0.55;;
32152;SDS011;18656;50.580;11.392;2022-10-18T12:24:06;0.60;;;0.60;;
32152;SDS011;18656;50.580;11.392;2022-10-18T12:26:34;0.52;;;0.43;;
32152;SDS011;18656;50.580;11.392;2022-10-18T12:29:13;1.38;;;0.57;;
32152;SDS011;18656;50.580;11.392;2022-10-18T12:31:45;1.20;;;0.60;;
32152;SDS011;18656;50.580;11.392;2022-10-18T12:34:33;1.08;;;0.88;;
32152;SDS011;18656;50.580;11.392;2022-10-18T12:37:05;0.68;;;0.65;;
32152;SDS011;18656;50.580;11.392;2022-10-18T12:39:42;0.70;;;0.70;;
32152;SDS011;18656;50.580;11.392;2022-10-18T12:42:30;0.70;;;0.60;;
32152;SDS011;18656;50.580;11.392;2022-10-18T12:45:04;3.60;;;1.13;;
32152;SDS011;18656;50.580;11.392;2022-10-18T12:47:32;2.17;;;0.98;;
32152;SDS011;18656;50.580;11.392;2022-10-18T12:50:01;1.00;;;0.85;;
32152;SDS011;18656;50.580;11.392;2022-10-18T12:52:29;0.93;;;0.90;;
32152;SDS011;18656;50.580;11.392;2022-10-18T12:55:00;0.73;;;0.73;;
32152;SDS011;18656;50.580;11.392;2022-10-18T12:57:59;1.00;;;1.00;;
32152;SDS011;18656;50.580;11.392;2022-10-18T13:13:30;1.45;;;0.80;;
32152;SDS011;18656;50.580;11.392;2022-10-18T13:16:19;0.82;;;0.80;;
32152;SDS011;18656;50.580;11.392;2022-10-18T13:21:22;0.43;;;0.43;;
32152;SDS011;18656;50.580;11.392;2022-10-18T13:24:16;0.55;;;0.55;;
32152;SDS011;18656;50.580;11.392;2022-10-18T13:26:51;0.60;;;0.60;;
32152;SDS011;18656;50.580;11.392;2022-10-18T13:29:48;0.50;;;0.50;;
32152;SDS011;18656;50.580;11.392;2022-10-18T13:32:21;0.40;;;0.40;;
32152;SDS011;18656;50.580;11.392;2022-10-18T13:34:49;0.70;;;0.70;;
32152;SDS011;18656;50.580;11.392;2022-10-18T13:37:18;0.50;;;0.50;;
32152;SDS011;18656;50.580;11.392;2022-10-18T13:39:46;0.68;;;0.65;;
32152;SDS011;18656;50.580;11.392;2022-10-18T13:44:44;1.40;;;1.02;;
32152;SDS011;18656;50.580;11.392;2022-10-18T13:47:18;2.80;;;1.02;;
32152;SDS011;18656;50.580;11.392;2022-10-18T13:52:36;1.02;;;1.02;;
32152;SDS011;18656;50.580;11.392;2022-10-18T13:55:18;1.02;;;0.80;;
32152;SDS011;18656;50.580;11.392;2022-10-18T13:57:55;1.70;;;0.68;;
32152;SDS011;18656;50.580;11.392;2022-10-18T14:08:36;1.63;;;0.60;;
32152;SDS011;18656;50.580;11.392;2022-10-18T14:13:56;2.13;;;1.00;;
32152;SDS011;18656;50.580;11.392;2022-10-18T14:16:42;0.50;;;0.50;;
32152;SDS011;18656;50.580;11.392;2022-10-18T14:19:16;0.50;;;0.50;;
32152;SDS011;18656;50.580;11.392;2022-10-18T14:21:48;1.13;;;0.80;;
32152;SDS011;18656;50.580;11.392;2022-10-18T14:24:21;3.22;;;0.90;;
32152;SDS011;18656;50.580;11.392;2022-10-18T14:29:36;0.40;;;0.40;;
32152;SDS011;18656;50.580;11.392;2022-10-18T14:32:06;0.75;;;0.70;;
32152;SDS011;18656;50.580;11.392;2022-10-18T14:34:34;1.15;;;0.50;;
32152;SDS011;18656;50.580;11.392;2022-10-18T14:37:01;2.80;;;0.70;;
32152;SDS011;18656;50.580;11.392;2022-10-18T14:39:28;0.55;;;0.55;;
32152;SDS011;18656;50.580;11.392;2022-10-18T14:41:56;0.50;;;0.30;;
32152;SDS011;18656;50.580;11.392;2022-10-18T14:44:24;1.65;;;0.40;;
32152;SDS011;18656;50.580;11.392;2022-10-18T14:49:41;1.27;;;0.55;;
32152;SDS011;18656;50.580;11.392;2022-10-18T14:52:10;0.75;;;0.40;;
32152;SDS011;18656;50.580;11.392;2022-10-18T14:54:39;0.85;;;0.35;;
32152;SDS011;18656;50.580;11.392;2022-10-18T14:57:07;1.75;;;0.30;;
32152;SDS011;18656;50.580;11.392;2022-10-18T14:59:49;1.02;;;0.30;;
32152;SDS011;18656;50.580;11.392;2022-10-18T15:02:20;0.85;;;0.63;;
32152;SDS011;18656;50.580;11.392;2022-10-18T15:07:34;1.20;;;0.40;;
32152;SDS011;18656;50.580;11.392;2022-10-18T15:10:03;0.38;;;0.38;;
32152;SDS011;18656;50.580;11.392;2022-10-18T15:12:31;2.15;;;0.70;;
32152;SDS011;18656;50.580;11.392;2022-10-18T15:15:06;2.38;;;0.60;;
32152;SDS011;18656;50.580;11.392;2022-10-18T15:17:37;0.60;;;0.43;;
32152;SDS011;18656;50.580;11.392;2022-10-18T15:20:19;0.60;;;0.45;;
32152;SDS011;18656;50.580;11.392;2022-10-18T15:22:47;2.25;;;0.70;;
32152;SDS011;18656;50.580;11.392;2022-10-18T15:25:25;2.65;;;0.75;;
32152;SDS011;18656;50.580;11.392;2022-10-18T15:27:57;0.77;;;0.50;;
32152;SDS011;18656;50.580;11.392;2022-10-18T15:30:26;1.75;;;0.47;;
32152;SDS011;18656;50.580;11.392;2022-10-18T15:32:57;1.35;;;0.80;;
32152;SDS011;18656;50.580;11.392;2022-10-18T15:35:29;2.28;;;0.75;;
32152;SDS011;18656;50.580;11.392;2022-10-18T15:37:58;0.95;;;0.90;;
32152;SDS011;18656;50.580;11.392;2022-10-18T15:40:30;2.60;;;0.90;;
32152;SDS011;18656;50.580;11.392;2022-10-18T15:42:59;2.05;;;1.10;;
32152;SDS011;18656;50.580;11.392;2022-10-18T15:45:28;3.13;;;1.45;;
32152;SDS011;18656;50.580;11.392;2022-10-18T15:48:01;1.85;;;1.70;;
32152;SDS011;18656;50.580;11.392;2022-10-18T15:50:39;3.58;;;1.70;;
32152;SDS011;18656;50.580;11.392;2022-10-18T15:55:47;1.40;;;0.90;;
32152;SDS011;18656;50.580;11.392;2022-10-18T15:58:16;1.67;;;1.05;;
32152;SDS011;18656;50.580;11.392;2022-10-18T16:00:45;2.88;;;2.72;;
32152;SDS011;18656;50.580;11.392;2022-10-18T16:03:12;3.97;;;3.78;;
32152;SDS011;18656;50.580;11.392;2022-10-18T16:05:40;8.23;;;4.15;;
32152;SDS011;18656;50.580;11.392;2022-10-18T16:08:18;4.07;;;3.78;;
32152;SDS011;18656;50.580;11.392;2022-10-18T16:10:45;10.05;;;4.53;;
32152;SDS011;18656;50.580;11.392;2022-10-18T16:13:15;5.07;;;4.32;;
32152;SDS011;18656;50.580;11.392;2022-10-18T16:15:42;4.03;;;3.63;;
32152;SDS011;18656;50.580;11.392;2022-10-18T16:18:11;75.97;;;54.40;;
32152;SDS011;18656;50.580;11.392;2022-10-18T16:20:39;36.30;;;27.55;;
32152;SDS011;18656;50.580;11.392;2022-10-18T16:23:17;11.82;;;10.55;;
32152;SDS011;18656;50.580;11.392;2022-10-18T16:25:45;7.60;;;5.72;;
32152;SDS011;18656;50.580;11.392;2022-10-18T16:28:13;7.90;;;6.30;;
32152;SDS011;18656;50.580;11.392;2022-10-18T16:30:41;6.85;;;5.93;;
32152;SDS011;18656;50.580;11.392;2022-10-18T16:33:09;5.82;;;5.30;;
32152;SDS011;18656;50.580;11.392;2022-10-18T16:35:36;6.70;;;4.90;;
32152;SDS011;18656;50.580;11.392;2022-10-18T16:38:04;3.70;;;3.40;;
32152;SDS011;18656;50.580;11.392;2022-10-18T16:40:31;1.85;;;1.75;;
32152;SDS011;18656;50.580;11.392;2022-10-18T16:43:02;1.70;;;1.60;;
32152;SDS011;18656;50.580;11.392;2022-10-18T16:45:29;1.05;;;0.93;;
32152;SDS011;18656;50.580;11.392;2022-10-18T16:47:57;1.38;;;0.80;;
32152;SDS011;18656;50.580;11.392;2022-10-18T16:50:24;1.90;;;1.50;;
32152;SDS011;18656;50.580;11.392;2022-10-18T16:52:51;4.10;;;3.50;;
32152;SDS011;18656;50.580;11.392;2022-10-18T16:55:19;6.93;;;4.60;;
32152;SDS011;18656;50.580;11.392;2022-10-18T16:57:50;5.10;;;4.60;;